Time;durP1;ratioP1;P1;durP2;ratioP2;P2;SDS_P1;SDS_P2;PMS_P1;PMS_P2;Temp;Humidity;BMP_temperature;BMP_pressure;BME280_temperature;BME280_humidity;BME280_pressure;Samples;Min_cycle;Max_cycle;Signal;HPM_P1;HPM_P2
2022/04/02 00:00:24;;;;;;;3.65;3.35;;;2.60;99.90;;;;;;5054914;28;20499;-49
2022/04/02 00:02:51;;;;;;;4.63;3.58;;;2.50;99.90;;;;;;5055131;28;20524;-52
2022/04/02 00:05:18;;;;;;;3.60;3.03;;;2.40;99.90;;;;;;5055486;28;20464;-48
2022/04/02 00:07:46;;;;;;;5.63;3.50;;;2.50;99.90;;;;;;5055011;28;20504;-51
2022/04/02 00:10:13;;;;;;;4.65;3.53;;;2.60;99.90;;;;;;5054351;28;20445;-51
2022/04/02 00:12:40;;;;;;;5.07;4.00;;;2.60;99.90;;;;;;5054624;28;20428;-47
2022/04/02 00:15:08;;;;;;;4.35;3.42;;;2.50;99.90;;;;;;5055320;28;20481;-48
2022/04/02 00:17:35;;;;;;;6.30;4.47;;;2.30;99.90;;;;;;5055233;28;20428;-46
2022/04/02 00:20:04;;;;;;;6.43;4.20;;;2.30;99.90;;;;;;5054293;28;20504;-45
2022/04/02 00:22:31;;;;;;;5.15;3.80;;;2.40;99.90;;;;;;5052850;28;20802;-47
2022/04/02 00:24:59;;;;;;;6.00;4.30;;;2.50;99.90;;;;;;5053366;28;20523;-46
2022/04/02 00:27:26;;;;;;;5.43;4.50;;;2.60;99.90;;;;;;5052374;28;20615;-51
2022/04/02 00:29:53;;;;;;;5.30;3.70;;;2.60;99.90;;;;;;5053233;28;20421;-48
2022/04/02 00:32:20;;;;;;;6.40;5.10;;;2.60;99.90;;;;;;5052522;28;20514;-47
2022/04/02 00:34:47;;;;;;;5.47;4.00;;;2.60;99.90;;;;;;5050987;28;20421;-48
2022/04/02 00:37:14;;;;;;;5.90;4.90;;;2.60;99.90;;;;;;5051345;28;20938;-52
2022/04/02 00:39:41;;;;;;;6.32;4.45;;;2.50;99.90;;;;;;5051957;28;20853;-49
2022/04/02 00:42:09;;;;;;;6.90;4.63;;;2.40;99.90;;;;;;5052733;28;20439;-52
2022/04/02 00:44:36;;;;;;;6.32;5.13;;;2.40;99.90;;;;;;5052113;28;20433;-50
2022/04/02 00:47:04;;;;;;;5.13;4.32;;;2.40;99.90;;;;;;5052134;28;20527;-48
2022/04/02 00:49:31;;;;;;;5.97;4.30;;;2.60;99.90;;;;;;5053520;28;20429;-52
2022/04/02 00:51:58;;;;;;;6.07;4.72;;;2.70;99.90;;;;;;5053235;28;20456;-49
2022/04/02 00:54:25;;;;;;;6.00;4.78;;;2.70;99.90;;;;;;5053096;28;20474;-48
2022/04/02 00:56:52;;;;;;;6.05;4.47;;;2.80;99.90;;;;;;5052931;28;20527;-47
2022/04/02 00:59:21;;;;;;;6.97;5.30;;;2.80;99.90;;;;;;5053674;28;20413;-51
2022/04/02 01:01:48;;;;;;;5.40;4.55;;;2.60;99.90;;;;;;5052960;28;20456;-48
2022/04/02 01:04:15;;;;;;;7.30;4.65;;;2.50;99.90;;;;;;5053123;28;20519;-52
2022/04/02 01:06:43;;;;;;;5.77;4.20;;;2.60;99.90;;;;;;5053406;28;20515;-52
2022/04/02 01:09:10;;;;;;;7.47;5.32;;;2.40;99.90;;;;;;5053118;28;20532;-49
2022/04/02 01:11:39;;;;;;;6.03;4.35;;;2.50;99.90;;;;;;5054696;28;20425;-46
2022/04/02 01:14:07;;;;;;;5.80;4.97;;;2.60;99.90;;;;;;5056568;28;20797;-49
2022/04/02 01:16:36;;;;;;;6.03;4.80;;;2.60;99.90;;;;;;5057264;28;20460;-50
2022/04/02 01:19:03;;;;;;;6.70;5.00;;;2.70;99.90;;;;;;5057641;28;20465;-51
2022/04/02 01:21:31;;;;;;;4.43;3.75;;;2.70;99.90;;;;;;5055974;28;20879;-51
2022/04/02 01:24:00;;;;;;;4.78;4.03;;;2.80;99.90;;;;;;5057508;28;20486;-47
2022/04/02 01:26:27;;;;;;;6.95;4.65;;;2.90;99.90;;;;;;5058282;28;20429;-51
2022/04/02 01:28:56;;;;;;;5.20;4.20;;;2.90;99.90;;;;;;5057329;28;20456;-51
2022/04/02 01:31:24;;;;;;;6.28;4.40;;;2.80;99.90;;;;;;5057897;28;20476;-48
2022/04/02 01:33:52;;;;;;;6.13;5.00;;;2.80;99.90;;;;;;5057042;28;20421;-47
2022/04/02 01:36:19;;;;;;;6.38;4.38;;;2.80;99.90;;;;;;5058270;28;20469;-51
2022/04/02 01:38:47;;;;;;;6.07;4.10;;;2.80;99.90;;;;;;5058383;28;20507;-51
2022/04/02 01:41:16;;;;;;;8.40;4.70;;;2.80;99.90;;;;;;5058264;28;20455;-51
2022/04/02 01:43:43;;;;;;;6.57;4.60;;;2.90;99.90;;;;;;5057573;28;20524;-48
2022/04/02 01:46:11;;;;;;;6.55;4.45;;;2.90;99.90;;;;;;5054254;28;20536;-50
2022/04/02 01:48:39;;;;;;;6.00;4.50;;;2.80;99.90;;;;;;5054767;28;20421;-52
2022/04/02 01:51:06;;;;;;;5.35;3.88;;;2.80;99.90;;;;;;5056565;28;20877;-49
2022/04/02 01:53:34;;;;;;;5.90;4.30;;;2.90;99.90;;;;;;5057699;28;20504;-51
2022/04/02 01:56:01;;;;;;;4.18;3.58;;;2.90;99.90;;;;;;5055959;28;20515;-49
2022/04/02 01:58:29;;;;;;;5.53;3.47;;;2.70;99.90;;;;;;5057492;28;20421;-46
2022/04/02 02:00:57;;;;;;;6.70;4.30;;;2.60;99.90;;;;;;5056323;28;20535;-50
2022/04/02 02:03:24;;;;;;;5.10;4.00;;;2.70;99.90;;;;;;5057024;28;20421;-51
2022/04/02 02:05:51;;;;;;;5.28;3.65;;;2.70;99.90;;;;;;5055832;28;22465;-47
2022/04/02 02:08:18;;;;;;;5.88;4.30;;;2.80;99.90;;;;;;5056215;28;20479;-47
2022/04/02 02:10:47;;;;;;;5.70;4.00;;;2.80;99.90;;;;;;5055353;28;20852;-51
2022/04/02 02:13:14;;;;;;;3.58;3.05;;;2.70;99.90;;;;;;5054833;28;20478;-53
2022/04/02 02:15:42;;;;;;;4.20;3.55;;;2.70;99.90;;;;;;5055484;28;20496;-50
2022/04/02 02:18:09;;;;;;;5.53;3.70;;;2.60;99.90;;;;;;5055216;28;20520;-52
2022/04/02 02:20:36;;;;;;;5.72;4.18;;;2.60;99.90;;;;;;5055547;28;20503;-51
2022/04/02 02:23:02;;;;;;;4.03;3.63;;;2.50;99.90;;;;;;5053413;28;20512;-52
2022/04/02 02:25:29;;;;;;;5.00;3.08;;;2.40;99.90;;;;;;5052684;28;20801;-51
2022/04/02 02:27:56;;;;;;;4.78;2.80;;;2.50;99.90;;;;;;5053418;28;20464;-52
2022/04/02 02:30:23;;;;;;;3.67;2.70;;;2.50;99.90;;;;;;5053893;28;20421;-53
2022/04/02 02:35:49;;;;;;;4.18;3.42;;;2.60;99.90;;;;;;5054054;28;20456;-48
2022/04/02 02:35:49;;;;;;;4.50;3.38;;;2.50;99.90;;;;;;5053683;28;20496;-52
2022/04/02 02:38:16;;;;;;;5.88;3.00;;;2.30;99.90;;;;;;5054659;28;20827;-51
2022/04/02 02:40:43;;;;;;;4.35;3.20;;;2.40;99.90;;;;;;5055702;28;20452;-51
2022/04/02 02:43:10;;;;;;;4.63;2.78;;;2.50;99.90;;;;;;5056770;28;20833;-49
2022/04/02 02:45:37;;;;;;;5.05;2.35;;;2.50;99.90;;;;;;5056559;28;20479;-50
2022/04/02 02:48:06;;;;;;;3.20;2.85;;;2.50;99.90;;;;;;5056381;28;20425;-48
2022/04/02 02:50:33;;;;;;;3.10;2.17;;;2.40;99.90;;;;;;5055468;28;20786;-48
2022/04/02 02:53:00;;;;;;;3.90;3.10;;;2.40;99.90;;;;;;5056908;28;20507;-52
2022/04/02 02:55:28;;;;;;;3.92;3.15;;;2.40;99.90;;;;;;5056712;28;20890;-51
2022/04/02 02:57:55;;;;;;;4.70;3.00;;;2.40;99.90;;;;;;5056568;28;20437;-47
2022/04/02 03:00:23;;;;;;;4.23;2.40;;;2.40;99.90;;;;;;5056679;28;20519;-48
2022/04/02 03:02:50;;;;;;;5.75;2.60;;;2.50;99.90;;;;;;5056476;28;20433;-47
2022/04/02 03:05:18;;;;;;;3.03;2.50;;;2.50;99.90;;;;;;5056311;28;20468;-51
2022/04/02 03:07:49;;;;;;;3.33;2.30;;;2.50;99.90;;;;;;5056397;28;20433;-49
2022/04/02 03:10:17;;;;;;;4.85;2.28;;;2.60;99.90;;;;;;5056544;28;20425;-51
2022/04/02 03:12:45;;;;;;;3.60;2.40;;;2.50;99.90;;;;;;5056264;28;20430;-48
2022/04/02 03:15:12;;;;;;;3.70;2.63;;;2.50;99.90;;;;;;5056121;28;20837;-49
2022/04/02 03:17:40;;;;;;;3.83;2.60;;;2.60;99.90;;;;;;5055729;28;20853;-50
2022/04/02 03:20:08;;;;;;;4.00;2.20;;;2.50;99.90;;;;;;5056695;28;20417;-48
2022/04/02 03:22:39;;;;;;;3.22;2.28;;;2.30;99.90;;;;;;5016442;28;20428;-49
2022/04/02 03:25:08;;;;;;;3.42;2.33;;;2.30;99.90;;;;;;5016119;28;20479;-48
2022/04/02 03:27:36;;;;;;;4.38;2.40;;;2.30;99.90;;;;;;5016412;28;20729;-51
2022/04/02 03:30:04;;;;;;;5.20;2.50;;;2.30;99.90;;;;;;5015924;28;20512;-51
2022/04/02 03:32:31;;;;;;;3.58;2.00;;;2.20;99.90;;;;;;5015329;28;20887;-48
2022/04/02 03:34:58;;;;;;;4.45;2.40;;;2.20;99.90;;;;;;5015274;28;20428;-52
2022/04/02 03:37:25;;;;;;;3.28;2.20;;;2.20;99.90;;;;;;5016406;28;20706;-48
2022/04/02 03:39:54;;;;;;;2.58;1.98;;;2.20;99.90;;;;;;5016742;28;20459;-49
2022/04/02 03:42:21;;;;;;;5.60;1.70;;;2.40;99.90;;;;;;5016013;28;20558;-51
2022/04/02 03:44:48;;;;;;;3.60;2.05;;;2.30;99.90;;;;;;5015003;28;21023;-49
2022/04/02 03:47:16;;;;;;;3.17;1.85;;;2.10;99.90;;;;;;5016033;28;20478;-49
2022/04/02 03:49:44;;;;;;;4.97;2.38;;;2.00;99.90;;;;;;5016019;28;20425;-51
2022/04/02 03:52:12;;;;;;;4.68;1.77;;;2.00;99.90;;;;;;5016117;28;20526;-48
2022/04/02 03:54:40;;;;;;;4.00;1.73;;;1.90;99.90;;;;;;5015381;28;20724;-47
2022/04/02 03:57:09;;;;;;;3.95;1.30;;;1.90;99.90;;;;;;5015298;28;20515;-47
2022/04/02 03:59:37;;;;;;;2.45;1.50;;;1.90;99.90;;;;;;5015935;28;20432;-50
2022/04/02 04:02:05;;;;;;;3.10;1.40;;;2.00;99.90;;;;;;5013418;28;20511;-49
2022/04/02 04:04:32;;;;;;;2.55;1.50;;;1.90;99.90;;;;;;5013609;28;20706;-49
2022/04/02 04:06:59;;;;;;;5.60;1.80;;;1.90;99.90;;;;;;5014450;28;20432;-49
2022/04/02 04:09:26;;;;;;;1.43;1.00;;;1.80;99.90;;;;;;5015220;28;20283;-49
2022/04/02 04:11:54;;;;;;;1.40;0.90;;;1.90;99.90;;;;;;5015242;28;20503;-48
2022/04/02 04:14:24;;;;;;;1.70;0.77;;;2.00;99.90;;;;;;5016041;28;20441;-50
2022/04/02 04:16:51;;;;;;;6.13;1.00;;;2.00;99.90;;;;;;5016225;28;20978;-49
2022/04/02 04:19:18;;;;;;;4.40;1.47;;;1.90;99.90;;;;;;5016138;28;20535;-46
2022/04/02 04:21:46;;;;;;;1.87;0.83;;;1.60;99.90;;;;;;5041539;28;20577;-51
2022/04/02 04:24:14;;;;;;;5.47;1.13;;;1.50;99.90;;;;;;5056057;28;20454;-47
2022/04/02 04:26:42;;;;;;;3.17;0.90;;;1.60;99.90;;;;;;5056338;28;20817;-49
2022/04/02 04:29:09;;;;;;;2.03;0.93;;;1.60;99.90;;;;;;5056246;28;20490;-49
2022/04/02 04:31:38;;;;;;;4.70;0.93;;;1.50;99.90;;;;;;5055446;28;20456;-49
2022/04/02 04:34:05;;;;;;;3.17;0.83;;;1.60;99.90;;;;;;5054403;28;20541;-46
2022/04/02 04:36:32;;;;;;;2.13;1.20;;;1.70;99.90;;;;;;5055409;28;20550;-48
2022/04/02 04:39:00;;;;;;;2.33;0.93;;;1.80;99.90;;;;;;5055571;28;20487;-46
2022/04/02 04:41:27;;;;;;;2.27;1.23;;;1.70;99.90;;;;;;5054928;28;20546;-47
2022/04/02 04:43:53;;;;;;;2.73;1.07;;;1.80;99.90;;;;;;5054859;28;20454;-47
2022/04/02 04:46:21;;;;;;;1.83;1.03;;;1.90;99.90;;;;;;5053929;28;20585;-50
2022/04/02 04:48:49;;;;;;;3.17;1.20;;;1.90;99.90;;;;;;5054366;28;20824;-50
2022/04/02 04:51:18;;;;;;;1.80;1.27;;;2.00;99.90;;;;;;5054590;28;20803;-48
2022/04/02 04:53:46;;;;;;;1.80;0.73;;;1.90;99.90;;;;;;5054979;28;20528;-48
2022/04/02 04:56:12;;;;;;;3.27;1.10;;;1.90;99.90;;;;;;5055151;28;20777;-45
2022/04/02 04:58:39;;;;;;;1.70;1.00;;;1.90;99.90;;;;;;5055798;28;20746;-47
2022/04/02 05:01:08;;;;;;;2.43;0.93;;;1.90;99.90;;;;;;5055641;28;20953;-45
2022/04/02 05:03:35;;;;;;;2.67;1.10;;;1.90;99.90;;;;;;5054783;28;20509;-47
2022/04/02 05:06:05;;;;;;;2.00;1.30;;;2.00;99.90;;;;;;5055932;28;20487;-46
2022/04/02 05:08:33;;;;;;;2.07;1.30;;;2.10;99.90;;;;;;5053957;28;20526;-53
2022/04/02 05:11:00;;;;;;;3.30;2.07;;;2.10;99.90;;;;;;5053291;28;20543;-50
2022/04/02 05:13:28;;;;;;;5.20;1.40;;;2.00;99.90;;;;;;5053811;28;20454;-51
2022/04/02 05:15:56;;;;;;;1.63;0.90;;;1.80;99.90;;;;;;5054705;28;20498;-50
2022/04/02 05:18:23;;;;;;;3.00;1.10;;;1.80;99.90;;;;;;5055019;28;20883;-51
2022/04/02 05:20:50;;;;;;;1.20;0.80;;;1.90;99.90;;;;;;5054994;28;20566;-49
2022/04/02 05:23:19;;;;;;;2.47;1.30;;;1.90;99.90;;;;;;5055395;28;20545;-51
2022/04/02 05:25:46;;;;;;;1.60;1.00;;;1.90;99.90;;;;;;5054792;28;20478;-47
2022/04/02 05:28:12;;;;;;;0.93;0.80;;;2.00;99.90;;;;;;5054976;28;20542;-53
2022/04/02 05:30:39;;;;;;;3.23;1.30;;;1.80;99.90;;;;;;5054736;28;20834;-50
2022/04/02 05:33:06;;;;;;;1.80;0.80;;;1.70;99.90;;;;;;5055690;28;20519;-50
2022/04/02 05:35:33;;;;;;;3.10;1.00;;;1.70;99.90;;;;;;5055325;28;20881;-49
2022/04/02 05:38:00;;;;;;;2.30;0.90;;;1.60;99.90;;;;;;5055218;28;20491;-49
2022/04/02 05:40:29;;;;;;;1.87;0.90;;;1.60;99.90;;;;;;5055399;28;20447;-49
2022/04/02 05:42:57;;;;;;;1.20;0.87;;;1.70;99.90;;;;;;5054807;28;20444;-48
2022/04/02 05:45:24;;;;;;;2.90;0.60;;;1.70;99.90;;;;;;5055538;28;20479;-53
2022/04/02 05:47:52;;;;;;;1.87;0.90;;;1.70;99.90;;;;;;5055320;28;20989;-47
2022/04/02 05:50:21;;;;;;;1.13;0.77;;;1.80;99.90;;;;;;5055089;28;20501;-47
2022/04/02 05:52:49;;;;;;;2.40;0.90;;;1.80;99.90;;;;;;5055354;28;20470;-49
2022/04/02 05:55:17;;;;;;;1.40;0.90;;;1.80;99.90;;;;;;5055184;28;20451;-48
2022/04/02 05:57:46;;;;;;;1.90;1.10;;;1.70;99.90;;;;;;5056716;28;20455;-49
2022/04/02 06:00:15;;;;;;;1.67;1.00;;;1.60;99.90;;;;;;5058491;28;20505;-50
2022/04/02 06:02:43;;;;;;;1.83;0.87;;;1.70;99.90;;;;;;5059072;28;20490;-49
2022/04/02 06:05:13;;;;;;;2.07;1.10;;;1.90;99.90;;;;;;5058746;28;20533;-51
2022/04/02 06:07:41;;;;;;;3.60;1.10;;;2.10;99.90;;;;;;5058499;28;20459;-48
2022/04/02 06:10:09;;;;;;;3.27;1.33;;;1.90;99.90;;;;;;5058243;28;20448;-47
2022/04/02 06:12:37;;;;;;;1.57;0.90;;;1.80;99.90;;;;;;5056716;28;20487;-52
2022/04/02 06:15:07;;;;;;;1.43;0.90;;;1.90;99.90;;;;;;5057311;28;20599;-52
2022/04/02 06:17:34;;;;;;;3.90;0.90;;;1.90;99.90;;;;;;5058100;28;20543;-49
2022/04/02 06:20:01;;;;;;;1.67;1.00;;;1.80;99.90;;;;;;5057553;28;20451;-47
2022/04/02 06:22:28;;;;;;;1.33;0.80;;;1.80;99.90;;;;;;5058061;28;20585;-53
2022/04/02 06:24:55;;;;;;;1.10;0.80;;;1.70;99.90;;;;;;5045660;28;20911;-49
2022/04/02 06:27:22;;;;;;;1.57;0.70;;;1.70;99.90;;;;;;5034371;28;20456;-54
2022/04/02 06:29:49;;;;;;;1.10;0.80;;;1.70;99.90;;;;;;5034281;28;20527;-54
2022/04/02 06:32:20;;;;;;;2.53;1.00;;;1.90;99.90;;;;;;5034686;28;20554;-52
2022/04/02 06:34:47;;;;;;;1.47;0.90;;;2.00;99.90;;;;;;5034753;28;20445;-51
2022/04/02 06:37:14;;;;;;;2.10;1.00;;;2.10;99.90;;;;;;5034641;28;20545;-52
2022/04/02 06:39:40;;;;;;;2.33;1.00;;;2.10;99.90;;;;;;5035669;28;20491;-52
2022/04/02 06:42:08;;;;;;;1.57;0.90;;;2.10;99.90;;;;;;5037118;28;20460;-53
2022/04/02 06:44:35;;;;;;;1.50;0.70;;;2.10;99.90;;;;;;5031445;28;20900;-50
2022/04/02 06:47:03;;;;;;;2.93;0.77;;;2.20;99.90;;;;;;5036560;28;20484;-51
2022/04/02 06:49:31;;;;;;;2.10;0.63;;;2.20;99.90;;;;;;5036230;28;20546;-49
2022/04/02 06:51:59;;;;;;;1.50;1.10;;;2.30;99.90;;;;;;5035934;28;20883;-53
2022/04/02 06:54:26;;;;;;;1.17;0.57;;;2.30;99.90;;;;;;5035557;28;20955;-52
2022/04/02 06:56:53;;;;;;;2.70;1.00;;;2.20;99.90;;;;;;5034910;28;20452;-48
2022/04/02 06:59:20;;;;;;;1.20;0.60;;;2.10;99.90;;;;;;5032816;28;20550;-50
2022/04/02 07:01:47;;;;;;;1.70;0.73;;;2.00;99.90;;;;;;5033712;28;20537;-51
2022/04/02 07:04:13;;;;;;;1.50;0.80;;;2.10;99.90;;;;;;5033205;28;20539;-51
2022/04/02 07:06:44;;;;;;;1.37;0.70;;;2.10;99.90;;;;;;5035219;28;20590;-50
2022/04/02 07:09:11;;;;;;;3.00;0.80;;;2.00;99.90;;;;;;5034652;28;20455;-51
2022/04/02 07:11:38;;;;;;;2.30;0.90;;;2.00;99.90;;;;;;5035491;28;20462;-46
2022/04/02 07:14:05;;;;;;;2.03;1.00;;;2.00;99.90;;;;;;5036137;28;20932;-50
2022/04/02 07:16:35;;;;;;;2.37;0.80;;;1.90;99.90;;;;;;5052658;28;20546;-47
2022/04/02 07:19:11;;;;;;;3.30;1.00;;;1.90;99.90;;;;;;5054942;28;20494;-52
2022/04/02 07:21:45;;;;;;;1.00;0.70;;;2.00;99.90;;;;;;5053250;28;20570;-51
2022/04/02 07:24:33;;;;;;;2.03;0.80;;;2.10;99.90;;;;;;5053757;28;20905;-52
2022/04/02 07:27:00;;;;;;;1.57;0.63;;;2.10;99.90;;;;;;5053722;28;21009;-48
2022/04/02 07:29:28;;;;;;;4.00;1.10;;;2.00;99.90;;;;;;5053710;28;20447;-52
2022/04/02 07:32:00;;;;;;;1.40;0.90;;;2.10;99.90;;;;;;5055943;28;20616;-53
2022/04/02 07:34:31;;;;;;;1.30;0.80;;;2.30;99.90;;;;;;5053887;28;20459;-50
2022/04/02 07:37:06;;;;;;;1.37;0.83;;;2.10;99.90;;;;;;5056328;28;20629;-50
2022/04/02 07:39:49;;;;;;;1.27;0.80;;;2.00;99.90;;;;;;5045632;28;20451;-48
2022/04/02 07:42:23;;;;;;;1.83;0.70;;;1.90;99.90;;;;;;5055270;28;20768;-53
2022/04/02 07:45:03;;;;;;;3.40;0.87;;;2.10;99.90;;;;;;5054846;28;20459;-52
2022/04/02 07:47:38;;;;;;;1.03;0.80;;;2.10;99.90;;;;;;5034042;28;21003;-51
2022/04/02 07:50:06;;;;;;;1.80;0.70;;;2.10;99.90;;;;;;5035844;28;20525;-53
2022/04/02 07:52:37;;;;;;;1.07;0.60;;;2.00;99.90;;;;;;5037059;28;20547;-52
2022/04/02 07:55:11;;;;;;;3.50;0.73;;;1.80;99.90;;;;;;5052545;28;20546;-52
2022/04/02 07:57:42;;;;;;;1.00;0.80;;;1.80;99.90;;;;;;5051302;28;20966;-53
2022/04/02 08:00:15;;;;;;;1.27;0.60;;;2.10;99.90;;;;;;5052136;28;20509;-50
2022/04/02 08:02:45;;;;;;;0.97;0.70;;;2.50;99.90;;;;;;5053323;28;20883;-52
2022/04/02 08:05:14;;;;;;;1.80;0.60;;;2.50;99.90;;;;;;5052508;28;20468;-49
2022/04/02 08:07:45;;;;;;;1.90;0.77;;;2.60;99.90;;;;;;5054008;28;20552;-52
2022/04/02 08:10:15;;;;;;;2.10;0.80;;;2.80;99.90;;;;;;5053375;28;20455;-51
2022/04/02 08:12:46;;;;;;;5.30;1.10;;;3.10;99.90;;;;;;5053261;28;20953;-49
2022/04/02 08:15:16;;;;;;;1.95;1.00;;;2.90;99.90;;;;;;5052243;28;20462;-47
2022/04/02 08:17:44;;;;;;;1.50;0.80;;;3.00;99.90;;;;;;5055141;28;20204;-52
2022/04/02 08:20:12;;;;;;;1.90;0.70;;;3.10;99.90;;;;;;5053855;28;20554;-56
2022/04/02 08:22:39;;;;;;;1.67;0.70;;;3.00;99.90;;;;;;5052382;28;20865;-52
2022/04/02 08:25:07;;;;;;;2.43;0.90;;;2.90;99.90;;;;;;5054302;28;20524;-52
2022/04/02 08:27:41;;;;;;;2.07;0.80;;;2.70;99.90;;;;;;5053804;28;20518;-54
2022/04/02 08:30:10;;;;;;;1.30;0.80;;;2.40;99.90;;;;;;5054608;28;20486;-53
2022/04/02 08:32:53;;;;;;;1.67;0.80;;;2.20;99.90;;;;;;5054254;28;20513;-51
2022/04/02 08:35:25;;;;;;;1.47;0.60;;;2.50;99.90;;;;;;5045392;28;20558;-52
2022/04/02 08:38:11;;;;;;;1.23;0.70;;;2.70;99.90;;;;;;5041276;28;20562;-53
2022/04/02 08:41:06;;;;;;;2.27;0.63;;;2.90;99.90;;;;;;5051485;28;20912;-54
2022/04/02 08:44:06;;;;;;;1.60;0.73;;;3.30;99.90;;;;;;5050226;28;20830;-53
2022/04/02 08:46:43;;;;;;;1.63;1.07;;;3.30;99.90;;;;;;5049977;28;20491;-54
2022/04/02 08:49:23;;;;;;;2.63;0.57;;;3.30;99.90;;;;;;5051377;28;20462;-54
2022/04/02 08:52:19;;;;;;;1.23;0.80;;;3.30;99.90;;;;;;5049118;28;20462;-52
2022/04/02 08:54:58;;;;;;;2.00;0.70;;;3.50;99.90;;;;;;5045088;28;20537;-54
2022/04/02 08:57:32;;;;;;;1.33;0.77;;;3.50;99.90;;;;;;5049477;28;20944;-53
2022/04/02 09:00:06;;;;;;;2.00;0.87;;;3.50;99.90;;;;;;5047227;28;20470;-54
2022/04/02 09:03:12;;;;;;;1.10;0.70;;;3.30;99.90;;;;;;5033407;28;20851;-52
2022/04/02 09:06:04;;;;;;;1.20;0.73;;;3.40;99.90;;;;;;5043331;28;20470;-53
2022/04/02 09:09:07;;;;;;;2.07;1.00;;;3.50;99.90;;;;;;5043949;28;20436;-52
2022/04/02 09:12:00;;;;;;;1.30;1.00;;;3.50;99.90;;;;;;5045939;28;20874;-53
2022/04/02 09:14:57;;;;;;;1.73;0.90;;;3.30;99.90;;;;;;5049428;28;20443;-50
2022/04/02 09:18:00;;;;;;;1.63;0.87;;;3.50;99.90;;;;;;5051732;28;20463;-54
2022/04/02 09:20:44;;;;;;;1.40;0.90;;;3.70;99.90;;;;;;5043779;28;20484;-53
2022/04/02 09:23:15;;;;;;;1.83;0.90;;;3.30;82.80;;;;;;5032604;28;20887;-54
2022/04/02 09:26:21;;;;;;;2.67;1.10;;;3.40;99.90;;;;;;5048130;28;20460;-54
2022/04/02 09:29:10;;;;;;;2.20;1.00;;;3.30;93.00;;;;;;5026996;28;20478;-55
2022/04/02 09:32:12;;;;;;;1.60;0.90;;;3.10;97.80;;;;;;5032380;28;20505;-52
2022/04/02 09:35:18;;;;;;;1.37;0.97;;;3.40;99.90;;;;;;5036923;28;20537;-51
2022/04/02 09:38:28;;;;;;;1.60;0.87;;;3.40;99.90;;;;;;5012749;28;20570;-53
2022/04/02 09:41:10;;;;;;;2.00;0.90;;;3.40;88.60;;;;;;5037982;28;20553;-49
2022/04/02 09:43:44;;;;;;;1.90;0.90;;;2.80;53.50;;;;;;5055758;28;20483;-50
2022/04/02 09:46:35;;;;;;;1.73;0.80;;;2.70;99.90;;;;;;5056060;28;20561;-53
2022/04/02 09:49:17;;;;;;;3.00;1.40;;;2.90;99.90;;;;;;5036486;28;20455;-52
2022/04/02 09:51:52;;;;;;;2.57;1.40;;;3.00;95.00;;;;;;5041155;28;20474;-50
2022/04/02 09:54:31;;;;;;;1.77;1.20;;;2.90;99.90;;;;;;5055835;28;20842;-54
2022/04/02 09:57:08;;;;;;;2.80;1.00;;;2.80;99.90;;;;;;5055890;28;20443;-54
2022/04/02 09:59:51;;;;;;;1.40;0.70;;;2.60;99.90;;;;;;5053973;28;20908;-52
2022/04/02 10:02:38;;;;;;;1.20;0.70;;;2.80;99.90;;;;;;5055906;28;20504;-52
2022/04/02 10:05:08;;;;;;;1.80;1.00;;;3.00;99.90;;;;;;5051312;28;20548;-55
2022/04/02 10:07:44;;;;;;;1.37;0.80;;;3.30;99.90;;;;;;5033468;28;20502;-54
2022/04/02 10:10:13;;;;;;;3.60;0.87;;;3.20;98.80;;;;;;5035966;28;20487;-50
2022/04/02 10:12:44;;;;;;;1.77;1.03;;;3.50;99.90;;;;;;5035857;28;20476;-54
2022/04/02 10:15:13;;;;;;;2.37;0.87;;;3.40;73.60;;;;;;5035698;28;20463;-52
2022/04/02 10:17:43;;;;;;;3.10;1.10;;;3.30;82.20;;;;;;5035532;28;20448;-53
2022/04/02 10:20:14;;;;;;;2.30;1.20;;;3.20;99.90;;;;;;5049986;28;20847;-52
2022/04/02 10:22:44;;;;;;;2.27;0.90;;;3.20;41.00;;;;;;5053759;28;20475;-48
2022/04/02 10:25:16;;;;;;;2.07;0.80;;;3.20;79.20;;;;;;5053053;28;20455;-51
2022/04/02 10:27:45;;;;;;;2.47;0.90;;;3.40;99.90;;;;;;5053479;28;20483;-53
2022/04/02 10:30:14;;;;;;;1.97;1.33;;;3.60;99.90;;;;;;5047648;28;20448;-54
2022/04/02 10:32:57;;;;;;;2.60;1.10;;;3.60;34.20;;;;;;5054628;28;20487;-54
2022/04/02 10:35:26;;;;;;;4.30;0.93;;;3.60;66.70;;;;;;5049265;28;20461;-56
2022/04/02 10:38:19;;;;;;;1.30;0.90;;;3.30;58.20;;;;;;5054185;28;20839;-51
2022/04/02 10:40:52;;;;;;;7.50;1.23;;;3.20;99.90;;;;;;5038028;28;20531;-55
2022/04/02 10:43:26;;;;;;;3.20;1.20;;;3.60;99.90;;;;;;5045559;28;20443;-52
2022/04/02 10:45:54;;;;;;;1.70;0.97;;;3.40;50.20;;;;;;5044352;28;20706;-50
2022/04/02 10:48:36;;;;;;;1.80;0.90;;;3.20;72.30;;;;;;5053106;28;20715;-51
2022/04/02 10:51:03;;;;;;;4.83;1.70;;;3.00;73.80;;;;;;5050600;28;20475;-53
2022/04/02 10:53:35;;;;;;;3.50;0.80;;;3.20;99.90;;;;;;5052456;28;20461;-51
2022/04/02 10:56:07;;;;;;;2.45;1.40;;;3.10;92.80;;;;;;5050253;28;20448;-53
2022/04/02 10:58:38;;;;;;;1.80;1.07;;;3.40;99.90;;;;;;5051190;28;20243;-52
2022/04/02 11:01:07;;;;;;;2.03;1.07;;;3.40;82.50;;;;;;5049241;28;20894;-55
2022/04/02 11:03:40;;;;;;;2.40;1.07;;;3.60;93.40;;;;;;5045801;28;20535;-50
2022/04/02 11:06:08;;;;;;;1.57;1.43;;;3.90;97.10;;;;;;5043075;28;20878;-55
2022/04/02 11:08:35;;;;;;;1.40;0.90;;;4.00;94.50;;;;;;5053943;28;20453;-52
2022/04/02 11:11:18;;;;;;;3.40;1.00;;;3.90;50.20;;;;;;5054188;28;20871;-52
2022/04/02 11:13:46;;;;;;;1.80;1.00;;;3.80;48.70;;;;;;5045702;28;20471;-53
2022/04/02 11:16:23;;;;;;;2.43;0.97;;;3.80;87.60;;;;;;5054307;28;20518;-53
2022/04/02 11:21:53;;;;;;;1.30;0.93;;;3.50;53.30;;;;;;5053320;28;20581;-55
2022/04/02 11:24:28;;;;;;;1.77;0.90;;;3.20;50.80;;;;;;5051791;28;20475;-53
2022/04/02 11:27:14;;;;;;;3.23;0.90;;;3.40;97.60;;;;;;5054924;28;20460;-55
2022/04/02 11:29:48;;;;;;;2.60;1.07;;;3.30;91.50;;;;;;5052146;28;20818;-57
2022/04/02 11:32:21;;;;;;;2.20;1.10;;;3.40;56.70;;;;;;5040098;28;20480;-56
2022/04/02 11:34:49;;;;;;;1.93;0.90;;;3.40;67.50;;;;;;5043447;28;20459;-56
2022/04/02 11:37:20;;;;;;;4.27;1.20;;;3.50;97.70;;;;;;5038054;28;20531;-57
2022/04/02 11:39:51;;;;;;;3.03;0.90;;;3.60;90.10;;;;;;5038107;28;20539;-57
2022/04/02 11:42:27;;;;;;;5.93;1.00;;;3.40;20.10;;;;;;5043532;28;20479;-56
2022/04/02 11:44:55;;;;;;;2.00;1.10;;;3.00;65.90;;;;;;5035812;28;20782;-56
2022/04/02 11:47:32;;;;;;;2.03;1.00;;;3.00;95.90;;;;;;5050907;28;20996;-55
2022/04/02 11:50:09;;;;;;;3.10;0.90;;;2.90;87.10;;;;;;5044158;28;20551;-55
2022/04/02 11:52:52;;;;;;;2.60;1.10;;;2.90;99.90;;;;;;5049006;28;20451;-56
2022/04/02 11:55:20;;;;;;;2.13;1.10;;;2.90;86.50;;;;;;5034475;28;20542;-55
2022/04/02 11:58:08;;;;;;;2.80;1.23;;;3.00;99.90;;;;;;5051045;28;20456;-56
2022/04/02 12:00:39;;;;;;;2.33;0.90;;;2.90;93.50;;;;;;5050145;28;20529;-55
2022/04/02 12:03:21;;;;;;;3.93;1.20;;;3.00;99.90;;;;;;5046231;28;20475;-55
2022/04/02 12:05:49;;;;;;;5.60;1.17;;;3.00;99.90;;;;;;5044834;28;20500;-55
2022/04/02 12:08:28;;;;;;;1.90;1.00;;;2.70;90.60;;;;;;5044994;28;20566;-56
2022/04/02 12:10:56;;;;;;;3.90;1.30;;;2.60;97.10;;;;;;5052076;28;20444;-57
2022/04/02 12:13:25;;;;;;;2.77;1.33;;;2.70;99.90;;;;;;5048450;28;20228;-57
2022/04/02 12:16:03;;;;;;;2.40;1.33;;;2.80;99.90;;;;;;5050752;28;20451;-56
2022/04/02 12:18:31;;;;;;;2.60;1.23;;;2.60;99.90;;;;;;5040532;28;20448;-55
2022/04/02 12:21:07;;;;;;;1.83;1.00;;;2.40;99.90;;;;;;5049728;28;20929;-56
2022/04/02 12:23:36;;;;;;;3.30;1.43;;;2.30;99.90;;;;;;5049669;28;20435;-57
2022/04/02 12:26:04;;;;;;;2.60;1.20;;;2.20;99.90;;;;;;5043103;28;20444;-55
2022/04/02 12:28:45;;;;;;;3.90;1.50;;;2.30;99.90;;;;;;5050788;28;20475;-56
2022/04/02 12:31:12;;;;;;;2.40;1.87;;;2.70;99.90;;;;;;5044565;28;20926;-56
2022/04/02 12:33:40;;;;;;;3.83;1.90;;;3.10;99.90;;;;;;5046849;28;20441;-56
2022/04/02 12:36:12;;;;;;;9.77;5.50;;;3.00;99.90;;;;;;5044249;28;20977;-55
2022/04/02 12:38:41;;;;;;;3.80;1.43;;;2.90;99.90;;;;;;5039966;28;20506;-53
2022/04/02 12:41:21;;;;;;;6.13;2.03;;;2.60;90.80;;;;;;5052689;28;20479;-55
2022/04/02 12:43:50;;;;;;;3.80;1.70;;;2.40;99.90;;;;;;5051867;28;20450;-53
2022/04/02 12:46:23;;;;;;;2.10;1.23;;;2.40;99.90;;;;;;5050977;28;20866;-56
2022/04/02 12:48:50;;;;;;;2.43;1.83;;;2.70;99.90;;;;;;5051280;28;20545;-53
2022/04/02 12:51:19;;;;;;;6.07;1.20;;;2.50;99.90;;;;;;5054115;28;20546;-54
2022/04/02 12:53:47;;;;;;;2.13;1.93;;;2.70;99.90;;;;;;5048533;28;20455;-55
2022/04/02 12:56:18;;;;;;;4.00;1.30;;;2.90;99.90;;;;;;5041549;28;20753;-54
2022/04/02 12:58:47;;;;;;;2.33;1.40;;;2.80;99.90;;;;;;5050257;28;20482;-55
2022/04/02 13:01:17;;;;;;;2.23;1.10;;;2.60;91.20;;;;;;5036193;28;20531;-51
2022/04/02 13:03:49;;;;;;;2.50;1.10;;;2.60;99.90;;;;;;5042395;28;20493;-54
2022/04/02 13:06:20;;;;;;;2.73;1.63;;;2.80;99.90;;;;;;5053081;28;20447;-57
2022/04/02 13:08:56;;;;;;;4.20;1.63;;;2.90;99.90;;;;;;5038129;28;20476;-54
2022/04/02 13:11:45;;;;;;;1.90;1.20;;;2.60;93.50;;;;;;5049028;28;20862;-55
2022/04/02 13:14:19;;;;;;;8.47;1.57;;;2.30;99.90;;;;;;5046838;28;20444;-52
2022/04/02 13:16:50;;;;;;;2.50;1.17;;;1.90;99.90;;;;;;5036794;28;20985;-55
2022/04/02 13:22:06;;;;;;;1.80;1.00;;;2.30;99.90;;;;;;5054571;28;20663;-57
2022/04/02 13:24:45;;;;;;;7.90;1.17;;;2.40;99.90;;;;;;5056863;28;20485;-56